createdAt,value
2018-05-15T00:00:01.531Z,1017.01
2018-05-15T00:05:01.416Z,1017.01
2018-05-15T00:10:01.505Z,1016.94
2018-05-15T00:15:01.396Z,1016.94
2018-05-15T00:20:01.537Z,1017.02
2018-05-15T00:25:01.401Z,1017.02
2018-05-15T00:30:01.508Z,1017.03
2018-05-15T00:40:01.525Z,1016.96
2018-05-15T00:45:01.417Z,1016.96
2018-05-15T00:50:01.472Z,1017.05
2018-05-15T00:55:01.532Z,1017.05
2018-05-15T01:00:01.459Z,1016.99
2018-05-15T01:10:01.523Z,1017.02
2018-05-15T01:15:01.439Z,1017.02
2018-05-15T01:20:01.517Z,1017.05
2018-05-15T01:30:01.473Z,1017.08
2018-05-15T01:45:01.459Z,1017.02
2018-05-15T01:50:01.524Z,1016.9
2018-05-15T01:55:01.407Z,1016.9
2018-05-15T02:00:01.522Z,1016.91
2018-05-15T02:05:01.568Z,1016.91
2018-05-15T02:10:01.591Z,1016.96
2018-05-15T02:15:01.536Z,1016.96
2018-05-15T02:20:01.601Z,1016.93
2018-05-15T02:30:01.534Z,1016.85
2018-05-15T02:40:01.554Z,1016.72
2018-05-15T02:45:01.611Z,1016.72
2018-05-15T02:50:01.565Z,1016.74
2018-05-15T02:55:01.561Z,1016.74
2018-05-15T03:00:01.583Z,1016.67
2018-05-15T03:05:01.550Z,1016.67
2018-05-15T03:15:01.549Z,1016.62
2018-05-15T03:25:01.552Z,1016.82
2018-05-15T03:30:01.638Z,1016.94
2018-05-15T03:45:01.671Z,1016.88
2018-05-15T03:50:01.557Z,1016.87
2018-05-15T04:00:01.560Z,1016.88
2018-05-15T04:05:01.591Z,1016.88
2018-05-15T04:10:01.555Z,1016.89
2018-05-15T04:15:01.524Z,1016.89
2018-05-15T04:20:01.546Z,1016.79
2018-05-15T04:25:01.626Z,1016.79
2018-05-15T04:30:01.540Z,1016.76
2018-05-15T04:35:01.972Z,1016.76
2018-05-15T04:40:01.542Z,1016.75
2018-05-15T04:45:01.549Z,1016.75
2018-05-15T04:50:01.614Z,1016.71
2018-05-15T04:55:01.547Z,1016.71
2018-05-15T05:01:01.537Z,1016.69
2018-05-15T05:06:01.606Z,1016.69
2018-05-15T05:11:01.595Z,1016.75
2018-05-15T05:16:01.554Z,1016.75
2018-05-15T05:21:01.851Z,1016.59
2018-05-15T05:26:01.538Z,1016.59
2018-05-15T05:31:01.547Z,1016.73
2018-05-15T05:36:01.565Z,1016.73
2018-05-15T05:41:01.549Z,1016.72
2018-05-15T05:46:01.552Z,1016.72
2018-05-15T05:52:01.682Z,1016.57
2018-05-15T05:57:01.403Z,1016.57
2018-05-15T06:02:01.420Z,1016.72
2018-05-15T06:07:01.434Z,1016.72
2018-05-15T06:12:01.560Z,1016.77
2018-05-15T06:17:01.428Z,1016.77
2018-05-15T06:22:01.553Z,1016.82
2018-05-15T06:27:01.426Z,1016.82
2018-05-15T06:32:01.436Z,1016.73
2018-05-15T06:37:01.418Z,1016.73
2018-05-15T06:42:01.491Z,1016.88
2018-05-15T06:47:01.424Z,1016.88
2018-05-15T06:52:01.479Z,1016.92
2018-05-15T06:57:01.420Z,1016.92
2018-05-15T07:02:01.431Z,1016.91
2018-05-15T07:07:01.406Z,1016.91
2018-05-15T07:12:01.526Z,1016.86
2018-05-15T07:17:01.420Z,1016.86
2018-05-15T07:22:01.561Z,1016.85
2018-05-15T07:27:01.457Z,1016.85
2018-05-15T07:32:01.419Z,1016.84
2018-05-15T07:37:01.505Z,1016.84
2018-05-15T07:42:02.631Z,1016.83
2018-05-15T07:47:01.443Z,1016.83
2018-05-15T07:57:01.593Z,1016.83
2018-05-15T08:12:01.556Z,1016.87
2018-05-15T08:17:01.416Z,1016.87
2018-05-15T08:22:01.544Z,1016.92
2018-05-15T08:27:01.418Z,1016.92
2018-05-15T08:32:01.533Z,1016.97
2018-05-15T08:37:01.427Z,1016.97
2018-05-15T08:42:01.537Z,1017.08
2018-05-15T08:47:01.402Z,1017.08
2018-05-15T08:52:01.538Z,1017.07
2018-05-15T08:57:01.409Z,1017.07
2018-05-15T09:02:01.408Z,1016.96
2018-05-15T09:07:01.443Z,1016.96
2018-05-15T09:12:01.553Z,1017.03
2018-05-15T09:22:01.463Z,1016.82
2018-05-15T09:27:01.413Z,1016.82
2018-05-15T09:32:01.404Z,1016.83
2018-05-15T09:37:01.483Z,1016.83
2018-05-15T09:42:01.479Z,1016.8
2018-05-15T09:52:01.558Z,1016.78
2018-05-15T10:07:01.410Z,1016.81
2018-05-15T10:12:01.485Z,1016.78
2018-05-15T10:22:01.467Z,1016.87
2018-05-15T10:37:01.412Z,1016.79
2018-05-15T10:42:01.543Z,1016.58
2018-05-15T10:47:01.410Z,1016.58
2018-05-15T10:57:01.526Z,1016.63
2018-05-15T11:02:01.415Z,1016.61
2018-05-15T11:07:01.395Z,1016.61
2018-05-15T11:17:01.255Z,1016.59
2018-05-15T11:22:01.564Z,1016.55
2018-05-15T11:27:01.495Z,1016.55
2018-05-15T11:32:01.455Z,1016.54
2018-05-15T11:37:01.443Z,1016.54
2018-05-15T11:42:01.509Z,1016.37
2018-05-15T11:47:01.445Z,1016.37
2018-05-15T11:52:04.096Z,1016.31
2018-05-15T11:58:01.586Z,1016.31
2018-05-15T12:03:01.431Z,1016.21
2018-05-15T12:08:01.613Z,1016.21
2018-05-15T12:13:01.467Z,1016.15
2018-05-15T12:28:01.502Z,1016.14
2018-05-15T12:43:01.472Z,1016.06
2018-05-15T12:58:01.537Z,1015.99
2018-05-15T13:03:01.439Z,1015.88
2018-05-15T13:14:01.580Z,1015.87
2018-05-15T13:24:01.499Z,1015.8
2018-05-15T13:29:01.632Z,1015.8
2018-05-15T13:34:01.440Z,1015.69
2018-05-15T13:39:01.537Z,1015.69
2018-05-15T13:44:01.398Z,1015.67
2018-05-15T13:49:01.551Z,1015.67
2018-05-15T13:54:01.422Z,1015.56
2018-05-15T14:04:01.276Z,1015.49
2018-05-15T14:09:01.584Z,1015.49
2018-05-15T14:19:01.347Z,1015.36
2018-05-15T14:34:01.299Z,1015.22
2018-05-15T14:39:02.460Z,1015.22
2018-05-15T14:44:01.514Z,1015.03
2018-05-15T14:54:01.576Z,1014.89
2018-05-15T14:59:01.515Z,1014.89
2018-05-15T15:04:01.455Z,1014.86
2018-05-15T15:09:01.563Z,1014.86
2018-05-15T15:19:01.387Z,1014.87
2018-05-15T15:24:01.482Z,1014.82
2018-05-15T15:39:01.476Z,1014.81
2018-05-15T15:54:01.519Z,1014.45
2018-05-15T15:59:01.522Z,1014.45
2018-05-15T16:04:01.654Z,1014.4
2018-05-15T16:09:01.480Z,1014.4
2018-05-15T16:14:01.399Z,1014.42
2018-05-15T16:19:01.533Z,1014.42
2018-05-15T16:24:01.468Z,1014.15
2018-05-15T16:29:01.532Z,1014.15
2018-05-15T16:34:01.552Z,1014.22
2018-05-15T16:39:01.491Z,1014.22
2018-05-15T16:44:01.531Z,1014.15
2018-05-15T16:49:01.586Z,1014.15
2018-05-15T17:04:01.281Z,1013.96
2018-05-15T17:14:01.368Z,1013.96
2018-05-15T17:24:01.415Z,1013.89
2018-05-15T17:29:01.370Z,1013.89
2018-05-15T17:35:01.412Z,1013.87
2018-05-15T17:40:01.400Z,1013.88
2018-05-15T17:45:01.391Z,1013.88
2018-05-15T17:50:01.392Z,1013.89
2018-05-15T17:55:01.400Z,1013.89
2018-05-15T18:00:02.137Z,1013.8
2018-05-15T18:05:01.392Z,1013.8
2018-05-15T18:10:01.464Z,1013.78
2018-05-15T18:15:01.436Z,1013.78
2018-05-15T18:20:01.432Z,1013.79
2018-05-15T18:25:01.399Z,1013.79
2018-05-15T18:30:01.434Z,1013.83
2018-05-15T18:35:01.431Z,1013.83
2018-05-15T18:40:01.411Z,1013.86
2018-05-15T18:45:01.403Z,1013.86
2018-05-15T19:00:01.435Z,1014.05
2018-05-15T19:10:01.428Z,1014.24
2018-05-15T19:15:01.413Z,1014.24
2018-05-15T19:20:01.393Z,1014.24
2018-05-15T19:25:01.386Z,1014.24
2018-05-15T19:30:01.407Z,1014.28
2018-05-15T19:35:01.362Z,1014.28
2018-05-15T19:40:01.348Z,1014.42
2018-05-15T19:45:01.548Z,1014.42
2018-05-15T19:55:01.411Z,1014.47
2018-05-15T20:00:01.371Z,1014.51
2018-05-15T20:05:01.378Z,1014.51
2018-05-15T20:10:01.387Z,1014.59
2018-05-15T20:15:01.400Z,1014.59
2018-05-15T20:20:01.369Z,1014.51
2018-05-15T20:25:01.399Z,1014.51
2018-05-15T20:30:01.340Z,1014.59
2018-05-15T20:35:02.105Z,1014.59
2018-05-15T20:40:01.397Z,1014.62
2018-05-15T20:45:01.367Z,1014.62
2018-05-15T20:50:01.370Z,1014.64
2018-05-15T20:55:01.417Z,1014.64
2018-05-15T21:00:01.484Z,1014.65
2018-05-15T21:05:01.475Z,1014.65
2018-05-15T21:15:01.603Z,1014.63
2018-05-15T21:20:01.461Z,1014.7
2018-05-15T21:30:01.527Z,1014.65
2018-05-15T21:40:01.571Z,1014.63
2018-05-15T21:45:01.423Z,1014.63
2018-05-15T21:55:01.473Z,1014.68
2018-05-15T22:00:01.668Z,1014.66
2018-05-15T22:05:01.447Z,1014.66
2018-05-15T22:15:01.551Z,1014.63
2018-05-15T22:25:01.505Z,1014.64
2018-05-15T22:30:02.459Z,1014.68
2018-05-15T22:40:01.527Z,1014.57
2018-05-15T22:45:01.494Z,1014.57
2018-05-15T22:50:01.524Z,1014.67
2018-05-15T22:55:01.434Z,1014.67
2018-05-15T23:00:01.530Z,1014.66
2018-05-15T23:15:01.451Z,1014.61
2018-05-15T23:20:01.464Z,1014.53
2018-05-15T23:30:01.581Z,1014.53
2018-05-15T23:40:01.499Z,1014.33
2018-05-15T23:45:01.433Z,1014.33
2018-05-15T23:50:02.559Z,1014.38
